createdAt,value
2023-01-07T00:00:30.249Z,100071.88
2023-01-07T00:05:38.911Z,100075.03
2023-01-07T00:10:47.252Z,100070.89
2023-01-07T00:16:00.653Z,100079.89
2023-01-07T00:21:11.990Z,100066.11
2023-01-07T00:26:22.198Z,100067.70
2023-01-07T00:31:32.213Z,100059.64
2023-01-07T00:36:44.075Z,100060.35
2023-01-07T00:42:11.010Z,100060.02
2023-01-07T00:47:18.687Z,100067.29
2023-01-07T00:52:27.442Z,100075.59
2023-01-07T00:57:36.086Z,100076.82
2023-01-07T01:02:44.378Z,100068.56
2023-01-07T01:07:53.425Z,100075.15
2023-01-07T01:13:02.454Z,100078.79
2023-01-07T01:18:10.784Z,100073.83
2023-01-07T01:23:19.282Z,100081.09
2023-01-07T01:28:27.683Z,100090.10
2023-01-07T01:33:35.467Z,100086.66
2023-01-07T01:38:44.414Z,100080.66
2023-01-07T01:43:53.180Z,100071.20
2023-01-07T01:49:06.272Z,100070.37
2023-01-07T01:54:18.156Z,100065.91
2023-01-07T01:59:31.961Z,100058.85
2023-01-07T02:04:40.960Z,100060.77
2023-01-07T02:09:53.029Z,100062.17
2023-01-07T02:15:12.816Z,100063.58
2023-01-07T02:20:41.333Z,100053.34
2023-01-07T02:26:13.899Z,100069.15
2023-01-07T02:31:36.691Z,100067.95
2023-01-07T02:36:59.622Z,100063.65
2023-01-07T02:42:17.611Z,100065.41
2023-01-07T02:47:31.396Z,100057.48
2023-01-07T02:52:41.335Z,100065.09
2023-01-07T02:58:34.429Z,100069.25
2023-01-07T03:04:06.111Z,100067.02
2023-01-07T03:09:20.075Z,100066.85
2023-01-07T03:14:36.230Z,100074.12
2023-01-07T03:19:52.343Z,100078.46
2023-01-07T03:25:01.717Z,100077.80
2023-01-07T03:30:15.234Z,100077.29
2023-01-07T03:35:25.326Z,100073.84
2023-01-07T03:40:34.290Z,100062.65
2023-01-07T03:45:43.831Z,100059.20
2023-01-07T03:50:52.527Z,100061.13
2023-01-07T03:56:01.602Z,100062.52
2023-01-07T04:01:11.218Z,100070.81
2023-01-07T04:06:19.560Z,100075.48
2023-01-07T04:11:28.496Z,100073.42
2023-01-07T04:16:38.580Z,100077.59
2023-01-07T04:21:47.688Z,100081.58
2023-01-07T04:26:56.458Z,100078.66
2023-01-07T04:32:05.613Z,100079.37
2023-01-07T04:37:14.298Z,100085.45
2023-01-07T04:42:22.643Z,100077.67
2023-01-07T04:47:31.601Z,100080.64
2023-01-07T04:52:40.864Z,100077.88
2023-01-07T04:57:50.150Z,100075.30
2023-01-07T05:02:58.818Z,100083.11
2023-01-07T05:08:08.350Z,100087.77
2023-01-07T05:13:21.265Z,100084.33
2023-01-07T05:18:31.084Z,100086.77
2023-01-07T05:23:40.419Z,100097.85
2023-01-07T05:28:50.219Z,100103.55
2023-01-07T05:33:59.482Z,100107.55
2023-01-07T05:39:08.438Z,100116.55
2023-01-07T05:44:17.005Z,100119.69
2023-01-07T05:49:25.279Z,100117.13
2023-01-07T05:54:33.805Z,100113.52
2023-01-07T05:59:42.482Z,100108.70
2023-01-07T06:04:50.723Z,100095.42
2023-01-07T06:10:01.815Z,100096.84
2023-01-07T06:15:12.755Z,100101.70
2023-01-07T06:20:21.313Z,100111.90
2023-01-07T06:25:29.656Z,100123.50
2023-01-07T06:30:38.057Z,100139.23
2023-01-07T06:35:48.855Z,100150.34
2023-01-07T06:40:59.207Z,100143.96
2023-01-07T06:46:08.052Z,100147.42
2023-01-07T06:51:16.809Z,100151.27
2023-01-07T06:56:26.165Z,100156.29
2023-01-07T07:01:35.043Z,100154.23
2023-01-07T07:06:43.494Z,100147.65
2023-01-07T07:11:51.709Z,100149.75
2023-01-07T07:16:59.865Z,100157.23
2023-01-07T07:22:08.208Z,100158.96
2023-01-07T07:27:16.428Z,100165.73
2023-01-07T07:32:29.049Z,100160.23
2023-01-07T07:37:38.036Z,100163.52
2023-01-07T07:43:10.519Z,100174.27
2023-01-07T07:48:16.905Z,100185.04
2023-01-07T07:53:25.222Z,100188.54
2023-01-07T07:58:33.547Z,100168.95
2023-01-07T08:03:42.356Z,100179.10
2023-01-07T08:08:50.640Z,100190.89
2023-01-07T08:13:59.038Z,100181.73
2023-01-07T08:19:07.541Z,100185.58
2023-01-07T08:24:16.263Z,100179.36
2023-01-07T08:29:24.619Z,100179.39
2023-01-07T08:34:32.945Z,100190.85
2023-01-07T08:39:41.822Z,100193.30
2023-01-07T08:44:50.795Z,100200.10
2023-01-07T08:49:59.070Z,100208.08
2023-01-07T08:55:08.265Z,100209.66
2023-01-07T09:00:19.213Z,100215.92
2023-01-07T09:05:27.902Z,100216.64
2023-01-07T09:10:36.417Z,100216.48
2023-01-07T09:15:45.676Z,100223.60
2023-01-07T09:20:54.204Z,100226.73
2023-01-07T09:26:03.028Z,100230.38
2023-01-07T09:31:12.635Z,100232.83
2023-01-07T09:36:20.927Z,100235.97
2023-01-07T09:41:40.977Z,100241.86
2023-01-07T09:46:49.939Z,100247.44
2023-01-07T09:52:06.063Z,100242.92
2023-01-07T09:57:19.463Z,100231.50
2023-01-07T10:02:41.155Z,100224.56
2023-01-07T10:08:31.133Z,100224.23
2023-01-07T10:13:55.060Z,100209.13
2023-01-07T10:19:14.544Z,100195.98
2023-01-07T10:24:27.984Z,100198.39
2023-01-07T10:29:41.880Z,100203.42
2023-01-07T10:34:51.959Z,100218.16
2023-01-07T10:40:23.338Z,100215.05
2023-01-07T10:45:52.349Z,100211.76
2023-01-07T10:51:41.375Z,100193.88
2023-01-07T10:56:58.584Z,100187.45
2023-01-07T11:02:18.212Z,100180.15
2023-01-07T11:07:36.497Z,100170.08
2023-01-07T11:12:50.457Z,100164.70
2023-01-07T11:18:02.971Z,100166.58
2023-01-07T11:23:34.697Z,100158.26
2023-01-07T11:28:49.944Z,100151.30
2023-01-07T11:34:02.651Z,100146.24
2023-01-07T11:39:21.152Z,100150.56
2023-01-07T11:44:29.940Z,100159.39
2023-01-07T11:49:45.844Z,100162.51
2023-01-07T11:54:57.159Z,100158.14
2023-01-07T12:00:17.964Z,100159.72
2023-01-07T12:05:29.451Z,100159.54
2023-01-07T12:10:40.496Z,100154.34
2023-01-07T12:15:54.870Z,100157.48
2023-01-07T12:21:45.111Z,100161.29
2023-01-07T12:26:57.577Z,100156.61
2023-01-07T12:32:18.658Z,100157.47
2023-01-07T12:37:36.069Z,100162.31
2023-01-07T12:42:51.910Z,100157.98
2023-01-07T12:48:04.350Z,100157.79
2023-01-07T12:53:22.101Z,100158.83
2023-01-07T12:58:49.197Z,100150.30
2023-01-07T13:04:11.745Z,100147.02
2023-01-07T13:09:33.794Z,100145.98
2023-01-07T13:14:47.685Z,100140.77
2023-01-07T13:19:59.269Z,100145.30
2023-01-07T13:25:22.672Z,100151.20
2023-01-07T13:30:42.325Z,100155.73
2023-01-07T13:36:06.181Z,100154.52
2023-01-07T13:41:28.891Z,100162.52
2023-01-07T13:46:41.603Z,100168.95
2023-01-07T13:51:50.060Z,100163.42
2023-01-07T13:56:59.158Z,100169.15
2023-01-07T14:02:23.801Z,100175.41
2023-01-07T14:07:32.942Z,100184.77
2023-01-07T14:13:07.743Z,100189.48
2023-01-07T14:18:42.309Z,100189.14
2023-01-07T14:24:03.653Z,100195.38
2023-01-07T14:29:39.771Z,100202.50
2023-01-07T14:34:59.052Z,100205.27
2023-01-07T14:40:59.730Z,100204.94
2023-01-07T14:46:09.028Z,100215.17
2023-01-07T14:51:37.379Z,100214.84
2023-01-07T14:56:59.029Z,100212.59
2023-01-07T15:08:27.246Z,100202.86
2023-01-07T15:14:00.557Z,100207.55
2023-01-07T15:19:12.093Z,100222.13
2023-01-07T15:24:31.771Z,100237.07
2023-01-07T15:29:50.401Z,100241.40
2023-01-07T15:34:58.711Z,100241.92
2023-01-07T15:40:09.157Z,100234.82
2023-01-07T15:45:21.852Z,100238.45
2023-01-07T15:50:41.345Z,100246.96
2023-01-07T15:55:58.176Z,100247.13
2023-01-07T16:01:08.891Z,100249.73
2023-01-07T16:06:36.229Z,100244.52
2023-01-07T16:11:45.300Z,100249.73
2023-01-07T16:17:14.319Z,100250.94
2023-01-07T16:22:24.648Z,100244.85
2023-01-07T16:27:34.299Z,100234.25
2023-01-07T16:32:43.509Z,100226.77
2023-01-07T16:37:54.240Z,100229.04
2023-01-07T16:43:00.609Z,100229.38
2023-01-07T16:48:23.130Z,100232.33
2023-01-07T16:53:35.538Z,100226.94
2023-01-07T16:58:50.237Z,100220.00
2023-01-07T17:04:01.549Z,100221.21
2023-01-07T17:09:23.452Z,100220.69
2023-01-07T17:14:54.115Z,100209.20
2023-01-07T17:20:20.327Z,100211.81
2023-01-07T17:25:29.927Z,100203.83
2023-01-07T17:30:39.174Z,100199.13
2023-01-07T17:35:50.276Z,100190.45
2023-01-07T17:40:58.797Z,100196.35
2023-01-07T17:46:09.733Z,100194.61
2023-01-07T17:51:18.497Z,100196.36
2023-01-07T17:56:27.654Z,100193.58
2023-01-07T18:01:36.077Z,100192.35
2023-01-07T18:06:45.655Z,100187.84
2023-01-07T18:12:13.138Z,100190.62
2023-01-07T18:17:22.058Z,100188.71
2023-01-07T18:22:30.613Z,100181.25
2023-01-07T18:27:38.763Z,100191.33
2023-01-07T18:32:48.641Z,100192.03
2023-01-07T18:37:58.588Z,100189.08
2023-01-07T18:43:07.084Z,100189.27
2023-01-07T18:48:17.150Z,100184.91
2023-01-07T18:53:27.842Z,100181.80
2023-01-07T18:58:36.342Z,100181.64
2023-01-07T19:03:44.596Z,100183.55
2023-01-07T19:08:52.663Z,100188.23
2023-01-07T19:14:01.015Z,100179.91
2023-01-07T19:19:09.515Z,100181.13
2023-01-07T19:24:17.545Z,100174.19
2023-01-07T19:29:25.754Z,100173.67
2023-01-07T19:34:34.396Z,100169.67
2023-01-07T19:39:42.739Z,100173.15
2023-01-07T19:44:51.441Z,100171.41
2023-01-07T19:50:00.223Z,100166.36
2023-01-07T19:55:09.897Z,100163.42
2023-01-07T20:00:18.806Z,100163.94
2023-01-07T20:05:29.498Z,100163.41
2023-01-07T20:10:37.839Z,100164.97
2023-01-07T20:15:46.212Z,100167.23
2023-01-07T20:21:01.618Z,100154.91
2023-01-07T20:26:11.380Z,100151.58
2023-01-07T20:31:21.672Z,100156.10
2023-01-07T20:36:32.951Z,100149.67
2023-01-07T20:41:41.509Z,100142.73
2023-01-07T20:46:49.915Z,100142.73
2023-01-07T20:51:58.188Z,100144.99
2023-01-07T20:57:06.967Z,100143.93
2023-01-07T21:02:18.736Z,100143.77
2023-01-07T21:07:27.750Z,100135.95
2023-01-07T21:12:36.265Z,100140.30
2023-01-07T21:17:45.263Z,100150.02
2023-01-07T21:22:54.186Z,100153.48
2023-01-07T21:28:03.589Z,100154.18
2023-01-07T21:33:11.885Z,100154.89
2023-01-07T21:38:20.672Z,100147.75
2023-01-07T21:43:29.409Z,100145.51
2023-01-07T21:48:39.834Z,100149.48
2023-01-07T21:53:48.377Z,100152.45
2023-01-07T21:58:57.427Z,100150.55
2023-01-07T22:04:05.845Z,100142.38
2023-01-07T22:09:17.710Z,100140.64
2023-01-07T22:14:26.683Z,100143.41
2023-01-07T22:19:35.958Z,100139.93
2023-01-07T22:24:45.409Z,100144.98
2023-01-07T22:29:55.481Z,100142.73
2023-01-07T22:35:03.896Z,100137.51
2023-01-07T22:40:14.604Z,100129.17
2023-01-07T22:45:33.739Z,100120.66
2023-01-07T22:50:42.852Z,100122.23
2023-01-07T22:55:51.228Z,100120.14
2023-01-07T23:01:14.992Z,100118.23
2023-01-07T23:06:23.324Z,100114.74
2023-01-07T23:11:52.487Z,100124.81
2023-01-07T23:17:01.099Z,100130.55
2023-01-07T23:22:09.273Z,100130.19
2023-01-07T23:27:19.307Z,100114.39
2023-01-07T23:32:29.196Z,100097.70
2023-01-07T23:37:37.514Z,100088.68
2023-01-07T23:42:50.212Z,100094.05
2023-01-07T23:47:58.795Z,100094.06
2023-01-07T23:53:07.494Z,100085.72
2023-01-07T23:58:16.181Z,100071.31
